• Join FlightAware (Why Join?)
  • Login
  • US Flag 
02:02AM EST


 

Airport Tracker/Info


-or-


 

Live Flight TrackerFlight Track Log ✈ UAL395 ✈ 13-Oct-2013 ✈ KIAD - KORD

Flight Track Log - Related Links

Times and Time Zones

All times are in EDT time to prevent confusion due to time zone crossing. See the UAL395 flight status page for this flight to view local times or setup timezone preferences in your user account.

Time Position Orientation Groundspeed Altitude Reporting Facility
EDT Latitude Longitude Course Direction KTS MPH feet Rate Location/Type
10:27PM 38.9500 -77.5000 270° West 173 199 1,300  Level Potomac TRACON
10:28PM 38.9333 -77.5833 256° West 237 273 3,400 1,800 Climbing Potomac TRACON
10:29PM 39.0781 -77.8355 270° West  Level Estimated
10:29PM 38.9000 -77.6667 243° Southwest 265 305 5,000  Level Potomac TRACON
10:30PM 39.1214 -77.9611 282° West  Level Estimated
10:30PM 38.8833 -77.7667 258° West 282 325 6,900  Level Potomac TRACON
10:31PM 39.1645 -78.0867 270° West  Level Estimated
10:31PM 38.8833 -77.8667 270° West 286 329 9,900  Level Potomac TRACON
10:32PM 39.2075 -78.2125 270° West  Level Estimated
10:32PM 38.8853 -77.9892 271° West 319 367 12,100  Level Washington Center
10:33PM 38.9228 -78.1025 293° West 326 375 14,600 2,640 Climbing Washington Center
10:34PM 38.9575 -78.2211 291° West 350 403 17,500 2,700 Climbing Washington Center
10:35PM 38.9650 -78.3547 274° West 361 415 20,000 2,520 Climbing Washington Center
10:36PM 38.9681 -78.4911 272° West 377 434 22,500 2,160 Climbing Washington Center
10:37PM 38.9747 -78.6461 273° West 393 452 24,400 1,920 Climbing Washington Center
10:38PM 38.9753 -78.7825 270° West 407 468 26,400 1,740 Climbing Washington Center
10:39PM 38.9817 -78.9322 273° West 418 481 27,900 1,500 Climbing Washington Center
10:40PM 38.9836 -79.0844 271° West 425 489 29,400 1,080 Climbing Washington Center
10:41PM 38.9872 -79.2422 272° West 430 495 30,100 960 Climbing Washington Center
10:42PM 38.9925 -79.4083 272° West 452 520 31,400 1,380 Climbing Washington Center
10:43PM 38.9956 -79.5686 271° West 457 526 33,000 1,500 Climbing Washington Center
10:44PM 39.0000 -79.7506 272° West 463 533 34,500 1,440 Climbing Washington Center
10:45PM 39.0006 -79.8994 270° West 445 512 35,900 720 Climbing Indianapolis Center
10:46PM 39.0025 -80.0497 271° West 438 504 36,000  Climbing Indianapolis Center
10:47PM 39.0047 -80.2056 271° West 432 497 36,000  Level Indianapolis Center
10:48PM 39.0078 -80.3639 271° West 441 507 36,000  Level Indianapolis Center
10:49PM 39.0492 -80.5106 290° West 442 509 36,000  Level Indianapolis Center
10:50PM 39.1147 -80.6475 302° West 449 517 36,000  Level Indianapolis Center
10:51PM 39.1789 -80.7847 301° West 448 516 36,000  Level Indianapolis Center
10:52PM 39.2386 -80.9233 299° West 446 513 36,000  Level Indianapolis Center
10:53PM 39.2983 -81.0606 299° West 443 510 36,000  Level Indianapolis Center
10:54PM 39.3581 -81.1958 300° West 437 503 36,000  Level Indianapolis Center
10:55PM 39.4153 -81.3283 299° West 428 493 36,000  Level Indianapolis Center
10:56PM 39.4731 -81.4614 299° West 426 490 36,000  Level Indianapolis Center
10:57PM 39.5292 -81.5961 298° West 426 490 36,000  Level Indianapolis Center
10:58PM 39.5975 -81.7558 299° West 423 487 36,000  Level Indianapolis Center
10:59PM 39.6539 -81.8889 299° West 422 486 36,000  Level Indianapolis Center
11:00PM 39.7106 -82.0225 299° West 424 488 36,000  Level Indianapolis Center
11:01PM 39.7622 -82.1453 299° West 426 490 36,000  Level Indianapolis Center
11:02PM 39.8181 -82.2786 299° West 424 488 36,000  Level Indianapolis Center
11:03PM 39.8750 -82.4125 299° West 424 488 36,000  Level Indianapolis Center
11:04PM 39.9308 -82.5469 298° West 423 487 36,000  Level Indianapolis Center
11:05PM 39.9872 -82.6811 299° West 424 488 36,000  Level Indianapolis Center
11:06PM 40.0417 -82.8153 298° West 422 486 36,000  Level Indianapolis Center
11:07PM 40.1069 -82.9753 298° West 420 483 36,000  Level Indianapolis Center
11:08PM 40.1611 -83.1083 298° West 420 483 36,000  Level Indianapolis Center
11:09PM 40.2156 -83.2406 298° West 418 481 36,000  Level Indianapolis Center
11:10PM 40.2686 -83.3733 298° West 416 479 36,000  Level Indianapolis Center
11:11PM 40.3222 -83.5058 298° West 416 479 36,000  Level Indianapolis Center
11:12PM 40.3753 -83.6386 298° West 415 478 36,000  Level Indianapolis Center
11:13PM 40.4283 -83.7706 298° West 412 474 36,000  Level Indianapolis Center
11:14PM 40.4800 -83.9019 297° West 408 470 36,000  Level Indianapolis Center
11:15PM 40.5322 -84.0331 298° West 408 470 36,000  Level Indianapolis Center
11:16PM 40.5833 -84.1636 297° West 404 465 36,000  Level Indianapolis Center
11:17PM 40.6300 -84.2967 295° West 403 464 36,000  Level Indianapolis Center
11:18PM 40.6728 -84.4314 293° West 402 463 36,000  Level Indianapolis Center
11:19PM 40.7158 -84.5672 293° West 402 463 36,000  Level Indianapolis Center
11:20PM 40.7686 -84.7300 293° West 403 464 36,000  Level Indianapolis Center
11:21PM 40.8128 -84.8639 294° West 400 460 36,000  Level Indianapolis Center
11:22PM 40.8508 -84.9867 292° West 398 458 36,000  Level Indianapolis Center
11:23PM 40.8936 -85.1219 293° West 400 460 36,000  Level Indianapolis Center
11:24PM 40.9464 -85.2850 293° West 400 460 36,000  Level Chicago Center
11:25PM 40.9894 -85.4192 293° West 398 458 36,000  Level Chicago Center
11:26PM 41.0308 -85.5553 292° West 398 458 36,000 -480 Level Chicago Center
11:27PM 41.0725 -85.6903 292° West 397 457 35,100 -2,160 Descending Chicago Center
11:28PM 41.1133 -85.8269 292° West 398 458 31,700 -2,700 Descending Chicago Center
11:29PM 41.1581 -85.9681 293° West 412 474 29,700 -2,040 Descending Chicago Center
11:30PM 41.1992 -86.1031 292° West 399 459 27,600 -1,920 Descending Chicago Center
11:31PM 41.2383 -86.2328 292° West 386 444 25,900 -1,740 Descending Chicago Center
11:32PM 41.2761 -86.3550 292° West 367 422 24,100 -1,920 Descending Chicago Center
11:33PM 41.3111 -86.4747 291° West 351 404 22,100 -2,160 Descending Chicago Center
11:34PM 41.3464 -86.5953 291° West 349 402 19,800 -2,160 Descending Chicago Center
11:35PM 41.3847 -86.7167 293° West 354 407 17,800 -1,680 Descending Chicago Center
11:36PM 41.4192 -86.8297 292° West 347 399 16,500 -1,740 Descending Chicago Center
11:37PM 41.4594 -86.9653 292° West 333 383 14,400 -2,040 Descending Chicago Center
11:38PM 41.4917 -87.0769 291° West 326 375 12,500 -1,200 Descending Chicago Center
11:39PM 41.5297 -87.1828 296° West 319 367 12,000 -300 Descending Chicago Center
11:41PM 41.5889 -87.2728 311° West 323 372 12,000  Level Chicago Center
11:42PM 41.6464 -87.3636 310° West 322 371 12,000  Level Chicago Center
11:43PM 41.7097 -87.4453 316° Northwest 339 390 12,000 -300 Level Chicago Center
11:44PM 41.7892 -87.4844 340° North 311 358 11,400 -1,380 Descending Chicago Center
11:45PM 41.8644 -87.5181 342° North 293 337 9,300 -2,160 Descending Chicago Center
11:46PM 41.9356 -87.5536 340° North 279 321 7,100 -2,160 Descending Chicago Center
11:47PM 41.9764 -87.6200 310° West 262 302 5,000 -2,340 Descending Chicago Center
11:47PM 41.9667 -87.7000 261° West 261 300 3,400 -1,740 Descending Chicago TRACON
11:48PM 41.9667 -87.7833 270° West 205 236 2,100 -1,020 Descending Chicago TRACON
11:49PM 41.9667 -87.8500 270° West 149 171 1,300 -840 Descending Chicago TRACON